sensor_id;sensor_type;location;lat;lon;timestamp;P1;durP1;ratioP1;P2;durP2;ratioP2
60851;SDS011;48553;50.766;2.900;2023-09-12T00:01:57;11.05;;;6.97;;
60851;SDS011;48553;50.766;2.900;2023-09-12T00:04:57;13.68;;;7.07;;
60851;SDS011;48553;50.766;2.900;2023-09-12T00:07:57;12.98;;;7.50;;
60851;SDS011;48553;50.766;2.900;2023-09-12T00:11:08;11.85;;;7.47;;
60851;SDS011;48553;50.766;2.900;2023-09-12T00:14:16;12.60;;;7.40;;
60851;SDS011;48553;50.766;2.900;2023-09-12T00:20:18;12.75;;;7.97;;
60851;SDS011;48553;50.766;2.900;2023-09-12T00:23:19;11.52;;;7.47;;
60851;SDS011;48553;50.766;2.900;2023-09-12T00:26:21;14.40;;;7.90;;
60851;SDS011;48553;50.766;2.900;2023-09-12T00:29:21;16.27;;;8.50;;
60851;SDS011;48553;50.766;2.900;2023-09-12T00:32:22;16.17;;;8.43;;
60851;SDS011;48553;50.766;2.900;2023-09-12T00:35:22;15.95;;;8.52;;
60851;SDS011;48553;50.766;2.900;2023-09-12T00:38:23;16.23;;;8.45;;
60851;SDS011;48553;50.766;2.900;2023-09-12T00:41:23;17.17;;;8.73;;
60851;SDS011;48553;50.766;2.900;2023-09-12T00:44:24;16.40;;;8.88;;
60851;SDS011;48553;50.766;2.900;2023-09-12T00:47:25;13.48;;;8.25;;
60851;SDS011;48553;50.766;2.900;2023-09-12T00:50:27;14.52;;;8.82;;
60851;SDS011;48553;50.766;2.900;2023-09-12T00:53:28;14.77;;;8.68;;
60851;SDS011;48553;50.766;2.900;2023-09-12T00:56:28;17.40;;;8.82;;
60851;SDS011;48553;50.766;2.900;2023-09-12T00:59:29;16.77;;;8.95;;
60851;SDS011;48553;50.766;2.900;2023-09-12T01:02:29;16.85;;;9.07;;
60851;SDS011;48553;50.766;2.900;2023-09-12T01:05:30;17.73;;;8.80;;
60851;SDS011;48553;50.766;2.900;2023-09-12T01:08:30;16.90;;;8.77;;
60851;SDS011;48553;50.766;2.900;2023-09-12T01:11:31;18.58;;;9.38;;
60851;SDS011;48553;50.766;2.900;2023-09-12T01:14:31;17.85;;;9.50;;
60851;SDS011;48553;50.766;2.900;2023-09-12T01:17:32;16.15;;;9.60;;
60851;SDS011;48553;50.766;2.900;2023-09-12T01:20:34;17.77;;;9.05;;
60851;SDS011;48553;50.766;2.900;2023-09-12T01:26:55;16.10;;;9.13;;
60851;SDS011;48553;50.766;2.900;2023-09-12T01:30:10;18.83;;;8.98;;
60851;SDS011;48553;50.766;2.900;2023-09-12T01:33:10;20.27;;;9.23;;
60851;SDS011;48553;50.766;2.900;2023-09-12T01:36:11;15.65;;;8.30;;
60851;SDS011;48553;50.766;2.900;2023-09-12T01:39:11;15.20;;;8.77;;
60851;SDS011;48553;50.766;2.900;2023-09-12T01:42:13;18.38;;;9.30;;
60851;SDS011;48553;50.766;2.900;2023-09-12T01:45:16;18.43;;;8.90;;
60851;SDS011;48553;50.766;2.900;2023-09-12T01:48:21;19.88;;;9.93;;
60851;SDS011;48553;50.766;2.900;2023-09-12T01:51:26;18.38;;;9.80;;
60851;SDS011;48553;50.766;2.900;2023-09-12T01:54:28;16.35;;;10.00;;
60851;SDS011;48553;50.766;2.900;2023-09-12T01:57:29;18.83;;;9.98;;
60851;SDS011;48553;50.766;2.900;2023-09-12T02:00:30;17.60;;;9.63;;
60851;SDS011;48553;50.766;2.900;2023-09-12T02:03:31;17.30;;;9.38;;
60851;SDS011;48553;50.766;2.900;2023-09-12T02:06:31;17.83;;;9.57;;
60851;SDS011;48553;50.766;2.900;2023-09-12T02:09:31;16.63;;;9.13;;
60851;SDS011;48553;50.766;2.900;2023-09-12T02:12:32;17.40;;;9.38;;
60851;SDS011;48553;50.766;2.900;2023-09-12T02:15:32;19.55;;;10.02;;
60851;SDS011;48553;50.766;2.900;2023-09-12T02:18:32;17.33;;;9.75;;
60851;SDS011;48553;50.766;2.900;2023-09-12T02:21:33;19.33;;;9.50;;
60851;SDS011;48553;50.766;2.900;2023-09-12T02:24:36;19.27;;;10.13;;
60851;SDS011;48553;50.766;2.900;2023-09-12T02:27:36;18.80;;;9.88;;
60851;SDS011;48553;50.766;2.900;2023-09-12T02:30:40;19.02;;;10.02;;
60851;SDS011;48553;50.766;2.900;2023-09-12T02:33:40;18.63;;;9.95;;
60851;SDS011;48553;50.766;2.900;2023-09-12T02:36:41;19.95;;;10.50;;
60851;SDS011;48553;50.766;2.900;2023-09-12T02:39:41;18.60;;;9.73;;
60851;SDS011;48553;50.766;2.900;2023-09-12T02:42:41;17.40;;;10.20;;
60851;SDS011;48553;50.766;2.900;2023-09-12T02:45:42;18.90;;;10.07;;
60851;SDS011;48553;50.766;2.900;2023-09-12T02:48:42;19.80;;;10.70;;
60851;SDS011;48553;50.766;2.900;2023-09-12T02:51:43;19.67;;;10.50;;
60851;SDS011;48553;50.766;2.900;2023-09-12T02:54:45;19.70;;;10.40;;
60851;SDS011;48553;50.766;2.900;2023-09-12T02:57:45;18.42;;;10.07;;
60851;SDS011;48553;50.766;2.900;2023-09-12T03:00:46;18.65;;;10.32;;
60851;SDS011;48553;50.766;2.900;2023-09-12T03:03:50;20.58;;;10.52;;
60851;SDS011;48553;50.766;2.900;2023-09-12T03:06:50;19.92;;;10.85;;
60851;SDS011;48553;50.766;2.900;2023-09-12T03:09:50;21.65;;;10.32;;
60851;SDS011;48553;50.766;2.900;2023-09-12T03:12:51;19.63;;;10.93;;
60851;SDS011;48553;50.766;2.900;2023-09-12T03:15:51;21.80;;;11.02;;
60851;SDS011;48553;50.766;2.900;2023-09-12T03:18:52;19.83;;;10.70;;
60851;SDS011;48553;50.766;2.900;2023-09-12T03:21:53;21.52;;;11.10;;
60851;SDS011;48553;50.766;2.900;2023-09-12T03:24:53;25.77;;;11.95;;
60851;SDS011;48553;50.766;2.900;2023-09-12T03:27:53;20.08;;;11.40;;
60851;SDS011;48553;50.766;2.900;2023-09-12T03:31:02;23.00;;;10.73;;
60851;SDS011;48553;50.766;2.900;2023-09-12T03:34:04;19.25;;;10.68;;
60851;SDS011;48553;50.766;2.900;2023-09-12T03:37:05;21.02;;;10.95;;
60851;SDS011;48553;50.766;2.900;2023-09-12T03:40:06;21.35;;;10.95;;
60851;SDS011;48553;50.766;2.900;2023-09-12T03:43:07;18.50;;;10.75;;
60851;SDS011;48553;50.766;2.900;2023-09-12T03:46:07;22.13;;;10.85;;
60851;SDS011;48553;50.766;2.900;2023-09-12T03:49:08;20.77;;;11.32;;
60851;SDS011;48553;50.766;2.900;2023-09-12T03:52:08;22.50;;;11.40;;
60851;SDS011;48553;50.766;2.900;2023-09-12T03:55:09;22.08;;;11.15;;
60851;SDS011;48553;50.766;2.900;2023-09-12T03:58:10;22.23;;;11.52;;
60851;SDS011;48553;50.766;2.900;2023-09-12T04:01:10;21.40;;;10.98;;
60851;SDS011;48553;50.766;2.900;2023-09-12T04:04:11;19.27;;;10.75;;
60851;SDS011;48553;50.766;2.900;2023-09-12T04:07:11;17.05;;;9.98;;
60851;SDS011;48553;50.766;2.900;2023-09-12T04:10:11;18.30;;;9.77;;
60851;SDS011;48553;50.766;2.900;2023-09-12T04:13:12;18.95;;;10.13;;
60851;SDS011;48553;50.766;2.900;2023-09-12T04:16:12;18.23;;;10.30;;
60851;SDS011;48553;50.766;2.900;2023-09-12T04:19:13;19.13;;;10.80;;
60851;SDS011;48553;50.766;2.900;2023-09-12T04:22:14;18.83;;;10.57;;
60851;SDS011;48553;50.766;2.900;2023-09-12T04:25:14;17.17;;;9.20;;
60851;SDS011;48553;50.766;2.900;2023-09-12T04:28:14;16.02;;;9.38;;
60851;SDS011;48553;50.766;2.900;2023-09-12T04:31:15;16.67;;;9.55;;
60851;SDS011;48553;50.766;2.900;2023-09-12T04:34:15;14.35;;;8.95;;
60851;SDS011;48553;50.766;2.900;2023-09-12T04:37:16;13.88;;;8.90;;
60851;SDS011;48553;50.766;2.900;2023-09-12T04:40:17;13.88;;;8.73;;
60851;SDS011;48553;50.766;2.900;2023-09-12T04:43:17;13.07;;;8.38;;
60851;SDS011;48553;50.766;2.900;2023-09-12T04:46:18;12.80;;;8.07;;
60851;SDS011;48553;50.766;2.900;2023-09-12T04:49:18;14.00;;;8.25;;
60851;SDS011;48553;50.766;2.900;2023-09-12T04:52:19;12.05;;;7.50;;
60851;SDS011;48553;50.766;2.900;2023-09-12T04:55:19;12.57;;;8.13;;
60851;SDS011;48553;50.766;2.900;2023-09-12T04:58:19;13.43;;;8.00;;
60851;SDS011;48553;50.766;2.900;2023-09-12T05:01:20;13.18;;;7.75;;
60851;SDS011;48553;50.766;2.900;2023-09-12T05:04:20;12.40;;;7.38;;
60851;SDS011;48553;50.766;2.900;2023-09-12T05:07:21;12.95;;;8.10;;
60851;SDS011;48553;50.766;2.900;2023-09-12T05:10:21;12.80;;;8.20;;
60851;SDS011;48553;50.766;2.900;2023-09-12T05:13:21;11.85;;;7.30;;
60851;SDS011;48553;50.766;2.900;2023-09-12T05:16:22;12.57;;;7.80;;
60851;SDS011;48553;50.766;2.900;2023-09-12T05:19:22;12.88;;;7.90;;
60851;SDS011;48553;50.766;2.900;2023-09-12T05:22:24;11.82;;;7.90;;
60851;SDS011;48553;50.766;2.900;2023-09-12T05:25:24;11.13;;;7.43;;
60851;SDS011;48553;50.766;2.900;2023-09-12T05:28:26;13.98;;;7.68;;
60851;SDS011;48553;50.766;2.900;2023-09-12T05:31:27;11.27;;;7.43;;
60851;SDS011;48553;50.766;2.900;2023-09-12T05:34:28;11.80;;;7.18;;
60851;SDS011;48553;50.766;2.900;2023-09-12T05:37:28;12.15;;;7.78;;
60851;SDS011;48553;50.766;2.900;2023-09-12T05:40:28;11.85;;;7.57;;
60851;SDS011;48553;50.766;2.900;2023-09-12T05:43:29;11.50;;;7.53;;
60851;SDS011;48553;50.766;2.900;2023-09-12T05:46:29;12.13;;;7.75;;
60851;SDS011;48553;50.766;2.900;2023-09-12T05:49:30;11.57;;;7.20;;
60851;SDS011;48553;50.766;2.900;2023-09-12T05:52:31;14.48;;;7.97;;
60851;SDS011;48553;50.766;2.900;2023-09-12T05:55:31;12.65;;;7.80;;
60851;SDS011;48553;50.766;2.900;2023-09-12T05:58:32;12.55;;;7.88;;
60851;SDS011;48553;50.766;2.900;2023-09-12T06:01:34;12.68;;;8.10;;
60851;SDS011;48553;50.766;2.900;2023-09-12T06:04:35;15.27;;;8.95;;
60851;SDS011;48553;50.766;2.900;2023-09-12T06:07:35;14.90;;;8.07;;
60851;SDS011;48553;50.766;2.900;2023-09-12T06:10:36;15.35;;;8.63;;
60851;SDS011;48553;50.766;2.900;2023-09-12T06:13:36;15.38;;;8.57;;
60851;SDS011;48553;50.766;2.900;2023-09-12T06:16:37;14.63;;;8.38;;
60851;SDS011;48553;50.766;2.900;2023-09-12T06:19:38;15.77;;;8.63;;
60851;SDS011;48553;50.766;2.900;2023-09-12T06:22:39;14.15;;;8.18;;
60851;SDS011;48553;50.766;2.900;2023-09-12T06:25:40;13.40;;;7.88;;
60851;SDS011;48553;50.766;2.900;2023-09-12T06:28:40;14.25;;;7.88;;
60851;SDS011;48553;50.766;2.900;2023-09-12T06:31:41;13.63;;;7.57;;
60851;SDS011;48553;50.766;2.900;2023-09-12T06:34:42;14.38;;;7.43;;
60851;SDS011;48553;50.766;2.900;2023-09-12T06:37:43;14.10;;;8.05;;
60851;SDS011;48553;50.766;2.900;2023-09-12T06:40:44;12.85;;;7.57;;
60851;SDS011;48553;50.766;2.900;2023-09-12T06:43:44;13.60;;;8.48;;
60851;SDS011;48553;50.766;2.900;2023-09-12T06:46:45;13.40;;;7.70;;
60851;SDS011;48553;50.766;2.900;2023-09-12T06:49:45;14.23;;;7.82;;
60851;SDS011;48553;50.766;2.900;2023-09-12T06:52:45;13.75;;;7.60;;
60851;SDS011;48553;50.766;2.900;2023-09-12T06:55:46;13.32;;;7.90;;
60851;SDS011;48553;50.766;2.900;2023-09-12T06:58:47;11.65;;;7.45;;
60851;SDS011;48553;50.766;2.900;2023-09-12T07:01:47;13.48;;;8.45;;
60851;SDS011;48553;50.766;2.900;2023-09-12T07:04:48;15.45;;;9.07;;
60851;SDS011;48553;50.766;2.900;2023-09-12T07:07:48;15.80;;;9.45;;
60851;SDS011;48553;50.766;2.900;2023-09-12T07:10:49;15.57;;;8.93;;
60851;SDS011;48553;50.766;2.900;2023-09-12T07:13:49;14.75;;;8.45;;
60851;SDS011;48553;50.766;2.900;2023-09-12T07:16:49;15.10;;;8.95;;
60851;SDS011;48553;50.766;2.900;2023-09-12T07:19:50;15.02;;;8.35;;
60851;SDS011;48553;50.766;2.900;2023-09-12T07:22:51;13.93;;;8.07;;
60851;SDS011;48553;50.766;2.900;2023-09-12T07:25:51;13.05;;;7.97;;
60851;SDS011;48553;50.766;2.900;2023-09-12T07:28:52;13.70;;;8.27;;
60851;SDS011;48553;50.766;2.900;2023-09-12T07:31:53;12.45;;;7.32;;
60851;SDS011;48553;50.766;2.900;2023-09-12T07:34:54;12.90;;;7.00;;
60851;SDS011;48553;50.766;2.900;2023-09-12T07:37:54;12.57;;;7.47;;
60851;SDS011;48553;50.766;2.900;2023-09-12T07:40:54;12.73;;;7.40;;
60851;SDS011;48553;50.766;2.900;2023-09-12T07:43:55;12.30;;;7.20;;
60851;SDS011;48553;50.766;2.900;2023-09-12T07:46:55;11.77;;;6.53;;
60851;SDS011;48553;50.766;2.900;2023-09-12T07:49:56;10.80;;;6.38;;
60851;SDS011;48553;50.766;2.900;2023-09-12T07:52:56;11.63;;;6.65;;
60851;SDS011;48553;50.766;2.900;2023-09-12T07:55:59;10.05;;;6.22;;
60851;SDS011;48553;50.766;2.900;2023-09-12T07:58:59;10.50;;;6.60;;
60851;SDS011;48553;50.766;2.900;2023-09-12T08:02:00;10.60;;;6.38;;
60851;SDS011;48553;50.766;2.900;2023-09-12T08:05:00;10.27;;;6.10;;
60851;SDS011;48553;50.766;2.900;2023-09-12T08:08:01;9.52;;;6.20;;
60851;SDS011;48553;50.766;2.900;2023-09-12T08:11:03;10.88;;;5.70;;
60851;SDS011;48553;50.766;2.900;2023-09-12T08:14:03;11.15;;;6.80;;
60851;SDS011;48553;50.766;2.900;2023-09-12T08:17:04;12.23;;;6.70;;
60851;SDS011;48553;50.766;2.900;2023-09-12T08:20:05;12.25;;;6.97;;
60851;SDS011;48553;50.766;2.900;2023-09-12T08:23:09;11.85;;;6.95;;
60851;SDS011;48553;50.766;2.900;2023-09-12T08:26:10;11.38;;;6.82;;
60851;SDS011;48553;50.766;2.900;2023-09-12T08:29:11;12.77;;;7.45;;
60851;SDS011;48553;50.766;2.900;2023-09-12T08:32:11;12.77;;;7.20;;
60851;SDS011;48553;50.766;2.900;2023-09-12T08:35:12;14.32;;;7.95;;
60851;SDS011;48553;50.766;2.900;2023-09-12T08:38:13;13.90;;;8.10;;
60851;SDS011;48553;50.766;2.900;2023-09-12T08:41:13;15.27;;;8.60;;
60851;SDS011;48553;50.766;2.900;2023-09-12T08:44:14;13.48;;;7.85;;
60851;SDS011;48553;50.766;2.900;2023-09-12T08:47:15;15.40;;;8.93;;
60851;SDS011;48553;50.766;2.900;2023-09-12T08:50:19;15.35;;;8.75;;
60851;SDS011;48553;50.766;2.900;2023-09-12T08:53:21;15.93;;;9.00;;
60851;SDS011;48553;50.766;2.900;2023-09-12T08:56:22;16.98;;;9.27;;
60851;SDS011;48553;50.766;2.900;2023-09-12T08:59:24;18.25;;;10.48;;
60851;SDS011;48553;50.766;2.900;2023-09-12T09:02:26;18.50;;;9.90;;
60851;SDS011;48553;50.766;2.900;2023-09-12T09:05:27;19.70;;;10.73;;
60851;SDS011;48553;50.766;2.900;2023-09-12T09:08:27;17.23;;;10.07;;
60851;SDS011;48553;50.766;2.900;2023-09-12T09:11:29;17.88;;;10.48;;
60851;SDS011;48553;50.766;2.900;2023-09-12T09:14:30;19.98;;;11.10;;
60851;SDS011;48553;50.766;2.900;2023-09-12T09:17:30;21.83;;;11.50;;
60851;SDS011;48553;50.766;2.900;2023-09-12T09:20:31;20.70;;;11.68;;
60851;SDS011;48553;50.766;2.900;2023-09-12T09:23:44;19.55;;;10.75;;
60851;SDS011;48553;50.766;2.900;2023-09-12T09:26:49;18.17;;;10.95;;
60851;SDS011;48553;50.766;2.900;2023-09-12T09:29:50;22.52;;;11.57;;
60851;SDS011;48553;50.766;2.900;2023-09-12T09:32:53;26.48;;;13.40;;
60851;SDS011;48553;50.766;2.900;2023-09-12T09:36:01;25.85;;;13.05;;
60851;SDS011;48553;50.766;2.900;2023-09-12T09:39:05;27.08;;;14.07;;
60851;SDS011;48553;50.766;2.900;2023-09-12T09:42:09;26.25;;;13.68;;
60851;SDS011;48553;50.766;2.900;2023-09-12T09:45:11;28.25;;;14.73;;
60851;SDS011;48553;50.766;2.900;2023-09-12T09:48:30;26.63;;;13.98;;
60851;SDS011;48553;50.766;2.900;2023-09-12T09:51:31;28.00;;;14.18;;
60851;SDS011;48553;50.766;2.900;2023-09-12T09:54:32;27.90;;;14.73;;
60851;SDS011;48553;50.766;2.900;2023-09-12T09:57:39;29.17;;;15.10;;
60851;SDS011;48553;50.766;2.900;2023-09-12T10:00:39;30.58;;;15.48;;
60851;SDS011;48553;50.766;2.900;2023-09-12T10:03:40;30.27;;;15.02;;
60851;SDS011;48553;50.766;2.900;2023-09-12T10:06:42;31.33;;;16.05;;
60851;SDS011;48553;50.766;2.900;2023-09-12T10:09:44;30.30;;;15.80;;
60851;SDS011;48553;50.766;2.900;2023-09-12T10:12:48;31.35;;;16.42;;
60851;SDS011;48553;50.766;2.900;2023-09-12T10:15:51;27.50;;;15.25;;
60851;SDS011;48553;50.766;2.900;2023-09-12T10:18:55;30.45;;;15.10;;
60851;SDS011;48553;50.766;2.900;2023-09-12T10:25:06;29.92;;;15.32;;
60851;SDS011;48553;50.766;2.900;2023-09-12T10:28:07;28.17;;;14.52;;
60851;SDS011;48553;50.766;2.900;2023-09-12T10:31:11;27.90;;;14.65;;
60851;SDS011;48553;50.766;2.900;2023-09-12T10:34:13;28.35;;;15.05;;
60851;SDS011;48553;50.766;2.900;2023-09-12T10:37:15;27.58;;;15.25;;
60851;SDS011;48553;50.766;2.900;2023-09-12T10:40:17;25.45;;;13.85;;
60851;SDS011;48553;50.766;2.900;2023-09-12T10:43:19;26.05;;;13.30;;
60851;SDS011;48553;50.766;2.900;2023-09-12T10:46:21;23.60;;;13.05;;
60851;SDS011;48553;50.766;2.900;2023-09-12T10:49:22;21.70;;;11.88;;
60851;SDS011;48553;50.766;2.900;2023-09-12T10:52:24;21.20;;;10.98;;
60851;SDS011;48553;50.766;2.900;2023-09-12T10:55:26;20.35;;;10.70;;
60851;SDS011;48553;50.766;2.900;2023-09-12T10:58:26;17.52;;;10.30;;
60851;SDS011;48553;50.766;2.900;2023-09-12T11:01:28;18.67;;;9.98;;
60851;SDS011;48553;50.766;2.900;2023-09-12T11:07:43;18.35;;;10.77;;
60851;SDS011;48553;50.766;2.900;2023-09-12T11:10:45;16.08;;;9.10;;
60851;SDS011;48553;50.766;2.900;2023-09-12T11:14:23;14.75;;;8.73;;
60851;SDS011;48553;50.766;2.900;2023-09-12T11:17:24;13.70;;;8.18;;
60851;SDS011;48553;50.766;2.900;2023-09-12T11:20:25;13.27;;;8.10;;
60851;SDS011;48553;50.766;2.900;2023-09-12T11:23:26;14.13;;;8.05;;
60851;SDS011;48553;50.766;2.900;2023-09-12T11:26:26;13.35;;;7.85;;
60851;SDS011;48553;50.766;2.900;2023-09-12T11:29:33;12.93;;;7.57;;
60851;SDS011;48553;50.766;2.900;2023-09-12T11:32:36;13.82;;;7.75;;
60851;SDS011;48553;50.766;2.900;2023-09-12T11:35:37;11.45;;;7.20;;
60851;SDS011;48553;50.766;2.900;2023-09-12T11:38:40;12.85;;;6.90;;
60851;SDS011;48553;50.766;2.900;2023-09-12T11:41:41;10.00;;;6.70;;
60851;SDS011;48553;50.766;2.900;2023-09-12T11:44:42;11.30;;;6.07;;
60851;SDS011;48553;50.766;2.900;2023-09-12T11:47:45;11.60;;;6.63;;
60851;SDS011;48553;50.766;2.900;2023-09-12T11:51:06;11.05;;;6.72;;
60851;SDS011;48553;50.766;2.900;2023-09-12T11:54:07;11.02;;;6.50;;
60851;SDS011;48553;50.766;2.900;2023-09-12T11:57:08;9.02;;;5.80;;
60851;SDS011;48553;50.766;2.900;2023-09-12T12:00:10;8.07;;;5.57;;
60851;SDS011;48553;50.766;2.900;2023-09-12T12:03:11;9.65;;;5.13;;
60851;SDS011;48553;50.766;2.900;2023-09-12T12:06:11;9.75;;;5.30;;
60851;SDS011;48553;50.766;2.900;2023-09-12T12:09:12;8.55;;;4.75;;
60851;SDS011;48553;50.766;2.900;2023-09-12T12:12:13;8.70;;;4.82;;
60851;SDS011;48553;50.766;2.900;2023-09-12T12:15:14;7.32;;;4.28;;
60851;SDS011;48553;50.766;2.900;2023-09-12T12:18:16;7.65;;;4.28;;
60851;SDS011;48553;50.766;2.900;2023-09-12T12:21:17;6.85;;;4.13;;
60851;SDS011;48553;50.766;2.900;2023-09-12T12:24:17;6.82;;;3.63;;
60851;SDS011;48553;50.766;2.900;2023-09-12T12:27:18;6.15;;;3.58;;
60851;SDS011;48553;50.766;2.900;2023-09-12T12:30:18;6.55;;;3.47;;
60851;SDS011;48553;50.766;2.900;2023-09-12T12:33:19;5.78;;;3.40;;
60851;SDS011;48553;50.766;2.900;2023-09-12T12:36:20;6.38;;;3.22;;
60851;SDS011;48553;50.766;2.900;2023-09-12T12:39:21;5.35;;;3.22;;
60851;SDS011;48553;50.766;2.900;2023-09-12T12:42:22;6.53;;;3.00;;
60851;SDS011;48553;50.766;2.900;2023-09-12T12:45:24;6.18;;;3.45;;
60851;SDS011;48553;50.766;2.900;2023-09-12T12:48:29;6.18;;;3.28;;
60851;SDS011;48553;50.766;2.900;2023-09-12T12:51:33;5.20;;;2.90;;
60851;SDS011;48553;50.766;2.900;2023-09-12T12:54:33;6.03;;;2.95;;
60851;SDS011;48553;50.766;2.900;2023-09-12T12:57:41;6.07;;;3.30;;
60851;SDS011;48553;50.766;2.900;2023-09-12T13:00:43;3.67;;;2.33;;
60851;SDS011;48553;50.766;2.900;2023-09-12T13:03:43;5.60;;;2.78;;
60851;SDS011;48553;50.766;2.900;2023-09-12T13:06:44;3.95;;;2.53;;
60851;SDS011;48553;50.766;2.900;2023-09-12T13:09:45;5.05;;;2.33;;
60851;SDS011;48553;50.766;2.900;2023-09-12T13:12:48;5.20;;;2.50;;
60851;SDS011;48553;50.766;2.900;2023-09-12T13:15:49;6.75;;;2.33;;
60851;SDS011;48553;50.766;2.900;2023-09-12T13:18:49;4.05;;;2.17;;
60851;SDS011;48553;50.766;2.900;2023-09-12T13:21:49;4.55;;;2.20;;
60851;SDS011;48553;50.766;2.900;2023-09-12T13:24:50;5.95;;;2.20;;
60851;SDS011;48553;50.766;2.900;2023-09-12T13:27:50;4.45;;;2.42;;
60851;SDS011;48553;50.766;2.900;2023-09-12T13:30:53;3.38;;;2.35;;
60851;SDS011;48553;50.766;2.900;2023-09-12T13:33:54;4.43;;;2.40;;
60851;SDS011;48553;50.766;2.900;2023-09-12T13:36:54;4.68;;;2.40;;
60851;SDS011;48553;50.766;2.900;2023-09-12T13:39:55;3.67;;;2.22;;
60851;SDS011;48553;50.766;2.900;2023-09-12T13:42:55;5.82;;;2.65;;
60851;SDS011;48553;50.766;2.900;2023-09-12T13:45:57;4.43;;;2.53;;
60851;SDS011;48553;50.766;2.900;2023-09-12T13:48:57;4.65;;;2.25;;
60851;SDS011;48553;50.766;2.900;2023-09-12T13:52:03;3.67;;;2.28;;
60851;SDS011;48553;50.766;2.900;2023-09-12T13:55:04;4.00;;;2.30;;
60851;SDS011;48553;50.766;2.900;2023-09-12T13:58:05;5.93;;;2.17;;
60851;SDS011;48553;50.766;2.900;2023-09-12T14:01:06;3.17;;;2.20;;
60851;SDS011;48553;50.766;2.900;2023-09-12T14:04:07;5.10;;;2.17;;
60851;SDS011;48553;50.766;2.900;2023-09-12T14:07:07;4.30;;;2.03;;
60851;SDS011;48553;50.766;2.900;2023-09-12T14:10:08;5.85;;;2.42;;
60851;SDS011;48553;50.766;2.900;2023-09-12T14:13:09;3.47;;;1.92;;
60851;SDS011;48553;50.766;2.900;2023-09-12T14:16:09;4.03;;;2.35;;
60851;SDS011;48553;50.766;2.900;2023-09-12T14:19:10;5.40;;;2.42;;
60851;SDS011;48553;50.766;2.900;2023-09-12T14:22:10;3.47;;;1.85;;
60851;SDS011;48553;50.766;2.900;2023-09-12T14:25:10;3.63;;;1.73;;
60851;SDS011;48553;50.766;2.900;2023-09-12T14:28:14;3.67;;;1.90;;
60851;SDS011;48553;50.766;2.900;2023-09-12T14:31:14;3.03;;;1.88;;
60851;SDS011;48553;50.766;2.900;2023-09-12T14:34:16;3.25;;;1.80;;
60851;SDS011;48553;50.766;2.900;2023-09-12T14:37:16;4.18;;;2.10;;
60851;SDS011;48553;50.766;2.900;2023-09-12T14:40:17;3.97;;;1.83;;
60851;SDS011;48553;50.766;2.900;2023-09-12T14:43:17;4.00;;;1.92;;
60851;SDS011;48553;50.766;2.900;2023-09-12T14:46:17;4.00;;;1.75;;
60851;SDS011;48553;50.766;2.900;2023-09-12T14:49:18;3.85;;;1.80;;
60851;SDS011;48553;50.766;2.900;2023-09-12T14:52:18;3.67;;;1.73;;
60851;SDS011;48553;50.766;2.900;2023-09-12T14:55:19;4.85;;;2.20;;
60851;SDS011;48553;50.766;2.900;2023-09-12T14:58:19;5.22;;;2.70;;
60851;SDS011;48553;50.766;2.900;2023-09-12T15:01:20;3.83;;;2.20;;
60851;SDS011;48553;50.766;2.900;2023-09-12T15:04:20;5.15;;;1.88;;
60851;SDS011;48553;50.766;2.900;2023-09-12T15:07:21;3.33;;;1.92;;
60851;SDS011;48553;50.766;2.900;2023-09-12T15:10:21;4.05;;;2.20;;
60851;SDS011;48553;50.766;2.900;2023-09-12T15:13:21;4.38;;;2.17;;
60851;SDS011;48553;50.766;2.900;2023-09-12T15:16:22;4.00;;;1.83;;
60851;SDS011;48553;50.766;2.900;2023-09-12T15:19:22;4.43;;;2.40;;
60851;SDS011;48553;50.766;2.900;2023-09-12T15:22:23;4.43;;;1.90;;
60851;SDS011;48553;50.766;2.900;2023-09-12T15:25:23;3.58;;;1.80;;
60851;SDS011;48553;50.766;2.900;2023-09-12T15:28:23;4.30;;;1.83;;
60851;SDS011;48553;50.766;2.900;2023-09-12T15:31:24;3.05;;;2.03;;
60851;SDS011;48553;50.766;2.900;2023-09-12T15:34:24;4.45;;;1.83;;
60851;SDS011;48553;50.766;2.900;2023-09-12T15:37:25;5.57;;;3.25;;
60851;SDS011;48553;50.766;2.900;2023-09-12T15:40:26;7.90;;;3.75;;
60851;SDS011;48553;50.766;2.900;2023-09-12T15:43:27;5.45;;;3.25;;
60851;SDS011;48553;50.766;2.900;2023-09-12T15:46:27;7.90;;;4.38;;
60851;SDS011;48553;50.766;2.900;2023-09-12T15:49:28;8.10;;;4.15;;
60851;SDS011;48553;50.766;2.900;2023-09-12T15:52:31;5.53;;;3.40;;
60851;SDS011;48553;50.766;2.900;2023-09-12T15:55:37;4.57;;;2.63;;
60851;SDS011;48553;50.766;2.900;2023-09-12T15:58:37;5.63;;;2.78;;
60851;SDS011;48553;50.766;2.900;2023-09-12T16:01:37;4.97;;;2.55;;
60851;SDS011;48553;50.766;2.900;2023-09-12T16:04:38;4.78;;;2.50;;
60851;SDS011;48553;50.766;2.900;2023-09-12T16:07:38;5.63;;;3.00;;
60851;SDS011;48553;50.766;2.900;2023-09-12T16:10:39;6.00;;;2.80;;
60851;SDS011;48553;50.766;2.900;2023-09-12T16:13:39;5.68;;;3.15;;
60851;SDS011;48553;50.766;2.900;2023-09-12T16:16:39;5.43;;;3.28;;
60851;SDS011;48553;50.766;2.900;2023-09-12T16:19:40;6.93;;;4.00;;
60851;SDS011;48553;50.766;2.900;2023-09-12T16:22:41;8.93;;;4.60;;
60851;SDS011;48553;50.766;2.900;2023-09-12T16:25:41;7.80;;;4.60;;
60851;SDS011;48553;50.766;2.900;2023-09-12T16:28:42;9.35;;;6.05;;
60851;SDS011;48553;50.766;2.900;2023-09-12T16:31:42;10.15;;;6.00;;
60851;SDS011;48553;50.766;2.900;2023-09-12T16:34:43;11.85;;;6.95;;
60851;SDS011;48553;50.766;2.900;2023-09-12T16:37:43;11.40;;;7.25;;
60851;SDS011;48553;50.766;2.900;2023-09-12T16:40:45;12.23;;;7.90;;
60851;SDS011;48553;50.766;2.900;2023-09-12T16:43:46;13.20;;;8.27;;
60851;SDS011;48553;50.766;2.900;2023-09-12T16:46:46;15.95;;;8.98;;
60851;SDS011;48553;50.766;2.900;2023-09-12T16:49:47;14.02;;;8.73;;
60851;SDS011;48553;50.766;2.900;2023-09-12T16:52:47;16.33;;;9.05;;
60851;SDS011;48553;50.766;2.900;2023-09-12T16:55:47;15.65;;;8.70;;
60851;SDS011;48553;50.766;2.900;2023-09-12T16:58:48;15.88;;;9.75;;
60851;SDS011;48553;50.766;2.900;2023-09-12T17:01:48;14.20;;;9.10;;
60851;SDS011;48553;50.766;2.900;2023-09-12T17:04:49;14.05;;;8.20;;
60851;SDS011;48553;50.766;2.900;2023-09-12T17:07:49;15.82;;;9.23;;
60851;SDS011;48553;50.766;2.900;2023-09-12T17:10:50;15.20;;;9.23;;
60851;SDS011;48553;50.766;2.900;2023-09-12T17:13:50;16.92;;;8.90;;
60851;SDS011;48553;50.766;2.900;2023-09-12T17:16:50;16.70;;;9.05;;
60851;SDS011;48553;50.766;2.900;2023-09-12T17:19:51;14.73;;;9.20;;
60851;SDS011;48553;50.766;2.900;2023-09-12T17:22:51;15.52;;;9.00;;
60851;SDS011;48553;50.766;2.900;2023-09-12T17:25:52;18.27;;;9.70;;
60851;SDS011;48553;50.766;2.900;2023-09-12T17:28:52;17.73;;;9.40;;
60851;SDS011;48553;50.766;2.900;2023-09-12T17:31:53;15.40;;;9.02;;
60851;SDS011;48553;50.766;2.900;2023-09-12T17:34:53;15.60;;;10.20;;
60851;SDS011;48553;50.766;2.900;2023-09-12T17:37:55;17.35;;;9.55;;
60851;SDS011;48553;50.766;2.900;2023-09-12T17:40:55;17.38;;;9.50;;
60851;SDS011;48553;50.766;2.900;2023-09-12T17:43:56;15.25;;;9.23;;
60851;SDS011;48553;50.766;2.900;2023-09-12T17:46:57;15.55;;;9.00;;
60851;SDS011;48553;50.766;2.900;2023-09-12T17:49:57;16.23;;;9.18;;
60851;SDS011;48553;50.766;2.900;2023-09-12T17:52:57;15.73;;;8.73;;
60851;SDS011;48553;50.766;2.900;2023-09-12T17:55:58;13.98;;;8.68;;
60851;SDS011;48553;50.766;2.900;2023-09-12T17:58:59;13.95;;;8.02;;
60851;SDS011;48553;50.766;2.900;2023-09-12T18:02:00;15.93;;;8.45;;
60851;SDS011;48553;50.766;2.900;2023-09-12T18:05:00;14.40;;;8.02;;
60851;SDS011;48553;50.766;2.900;2023-09-12T18:08:01;16.35;;;8.18;;
60851;SDS011;48553;50.766;2.900;2023-09-12T18:11:01;12.93;;;7.65;;